sensor_id;sensor_type;location;lat;lon;timestamp;temperature;humidity
76956;DHT22;65894;53.206;-6.108;2023-02-18T00:00:59;19.85;64.57
76956;DHT22;65894;53.206;-6.108;2023-02-18T00:03:25;19.83;64.39
76956;DHT22;65894;53.206;-6.108;2023-02-18T00:05:51;19.85;64.08
76956;DHT22;65894;53.206;-6.108;2023-02-18T00:08:17;19.86;64.01
76956;DHT22;65894;53.206;-6.108;2023-02-18T00:10:43;19.85;64.41
76956;DHT22;65894;53.206;-6.108;2023-02-18T00:13:08;19.85;64.10
76956;DHT22;65894;53.206;-6.108;2023-02-18T00:15:35;19.85;64.29
76956;DHT22;65894;53.206;-6.108;2023-02-18T00:18:00;19.83;64.11
76956;DHT22;65894;53.206;-6.108;2023-02-18T00:20:26;19.82;64.13
76956;DHT22;65894;53.206;-6.108;2023-02-18T00:22:51;19.85;64.18
76956;DHT22;65894;53.206;-6.108;2023-02-18T00:25:17;19.82;64.08
76956;DHT22;65894;53.206;-6.108;2023-02-18T00:27:42;19.83;64.29
76956;DHT22;65894;53.206;-6.108;2023-02-18T00:30:08;19.83;64.28
76956;DHT22;65894;53.206;-6.108;2023-02-18T00:32:34;19.85;64.04
76956;DHT22;65894;53.206;-6.108;2023-02-18T00:35:00;19.85;63.94
76956;DHT22;65894;53.206;-6.108;2023-02-18T00:37:25;19.83;64.01
76956;DHT22;65894;53.206;-6.108;2023-02-18T00:39:51;19.83;64.03
76956;DHT22;65894;53.206;-6.108;2023-02-18T00:42:17;19.82;63.86
76956;DHT22;65894;53.206;-6.108;2023-02-18T00:44:42;19.83;63.69
76956;DHT22;65894;53.206;-6.108;2023-02-18T00:47:08;19.83;63.64
76956;DHT22;65894;53.206;-6.108;2023-02-18T00:49:33;19.83;63.87
76956;DHT22;65894;53.206;-6.108;2023-02-18T00:52:02;19.82;64.07
76956;DHT22;65894;53.206;-6.108;2023-02-18T00:54:28;19.81;63.87
76956;DHT22;65894;53.206;-6.108;2023-02-18T00:56:54;19.82;63.92
76956;DHT22;65894;53.206;-6.108;2023-02-18T00:59:19;19.81;64.11
76956;DHT22;65894;53.206;-6.108;2023-02-18T01:01:45;19.82;63.65
76956;DHT22;65894;53.206;-6.108;2023-02-18T01:04:11;19.81;63.77
76956;DHT22;65894;53.206;-6.108;2023-02-18T01:06:37;19.79;63.58
76956;DHT22;65894;53.206;-6.108;2023-02-18T01:09:04;19.81;63.82
76956;DHT22;65894;53.206;-6.108;2023-02-18T01:11:29;19.83;63.66
76956;DHT22;65894;53.206;-6.108;2023-02-18T01:13:55;19.82;63.65
76956;DHT22;65894;53.206;-6.108;2023-02-18T01:16:21;19.81;63.71
76956;DHT22;65894;53.206;-6.108;2023-02-18T01:18:46;19.81;63.87
76956;DHT22;65894;53.206;-6.108;2023-02-18T01:21:12;19.79;64.11
76956;DHT22;65894;53.206;-6.108;2023-02-18T01:23:39;19.79;63.72
76956;DHT22;65894;53.206;-6.108;2023-02-18T01:26:06;19.81;63.74
76956;DHT22;65894;53.206;-6.108;2023-02-18T01:28:32;19.81;63.95
76956;DHT22;65894;53.206;-6.108;2023-02-18T01:30:57;19.78;64.17
76956;DHT22;65894;53.206;-6.108;2023-02-18T01:33:24;19.79;64.00
76956;DHT22;65894;53.206;-6.108;2023-02-18T01:35:51;19.78;63.95
76956;DHT22;65894;53.206;-6.108;2023-02-18T01:38:16;19.79;63.75
76956;DHT22;65894;53.206;-6.108;2023-02-18T01:40:46;19.77;63.90
76956;DHT22;65894;53.206;-6.108;2023-02-18T01:43:12;19.78;63.99
76956;DHT22;65894;53.206;-6.108;2023-02-18T01:48:45;19.78;63.51
76956;DHT22;65894;53.206;-6.108;2023-02-18T01:53:48;19.79;64.04
76956;DHT22;65894;53.206;-6.108;2023-02-18T01:56:22;19.77;63.66
76956;DHT22;65894;53.206;-6.108;2023-02-18T01:58:50;19.75;63.78
76956;DHT22;65894;53.206;-6.108;2023-02-18T02:01:16;19.78;63.77
76956;DHT22;65894;53.206;-6.108;2023-02-18T02:03:41;19.75;63.79
76956;DHT22;65894;53.206;-6.108;2023-02-18T02:06:20;19.79;63.62
76956;DHT22;65894;53.206;-6.108;2023-02-18T02:08:50;19.77;63.88
76956;DHT22;65894;53.206;-6.108;2023-02-18T02:25:45;19.77;63.68
76956;DHT22;65894;53.206;-6.108;2023-02-18T02:41:55;19.74;63.70
76956;DHT22;65894;53.206;-6.108;2023-02-18T02:44:38;19.77;63.74
76956;DHT22;65894;53.206;-6.108;2023-02-18T02:47:10;19.74;63.81
76956;DHT22;65894;53.206;-6.108;2023-02-18T02:49:44;19.72;63.94
76956;DHT22;65894;53.206;-6.108;2023-02-18T02:54:42;19.72;63.92
76956;DHT22;65894;53.206;-6.108;2023-02-18T02:59:58;19.74;63.72
76956;DHT22;65894;53.206;-6.108;2023-02-18T03:02:38;19.75;63.76
76956;DHT22;65894;53.206;-6.108;2023-02-18T03:10:47;19.71;63.52
76956;DHT22;65894;53.206;-6.108;2023-02-18T03:18:47;19.74;63.73
76956;DHT22;65894;53.206;-6.108;2023-02-18T03:23:59;19.71;63.63
76956;DHT22;65894;53.206;-6.108;2023-02-18T03:26:28;19.72;63.42
76956;DHT22;65894;53.206;-6.108;2023-02-18T03:28:59;19.72;63.54
76956;DHT22;65894;53.206;-6.108;2023-02-18T03:31:28;19.74;63.69
76956;DHT22;65894;53.206;-6.108;2023-02-18T03:34:02;19.72;63.38
76956;DHT22;65894;53.206;-6.108;2023-02-18T03:36:31;19.72;63.43
76956;DHT22;65894;53.206;-6.108;2023-02-18T03:39:02;19.71;63.25
76956;DHT22;65894;53.206;-6.108;2023-02-18T03:41:29;19.72;63.24
76956;DHT22;65894;53.206;-6.108;2023-02-18T03:44:00;19.71;63.37
76956;DHT22;65894;53.206;-6.108;2023-02-18T03:46:27;19.72;63.24
76956;DHT22;65894;53.206;-6.108;2023-02-18T03:48:53;19.68;63.25
76956;DHT22;65894;53.206;-6.108;2023-02-18T03:51:20;19.72;63.37
76956;DHT22;65894;53.206;-6.108;2023-02-18T03:53:46;19.68;63.24
76956;DHT22;65894;53.206;-6.108;2023-02-18T03:56:12;19.68;63.34
76956;DHT22;65894;53.206;-6.108;2023-02-18T03:58:37;19.71;63.14
76956;DHT22;65894;53.206;-6.108;2023-02-18T04:01:03;19.67;63.25
76956;DHT22;65894;53.206;-6.108;2023-02-18T04:03:29;19.72;62.91
76956;DHT22;65894;53.206;-6.108;2023-02-18T04:05:54;19.70;63.07
76956;DHT22;65894;53.206;-6.108;2023-02-18T04:08:20;19.68;63.21
76956;DHT22;65894;53.206;-6.108;2023-02-18T04:10:45;19.70;63.41
76956;DHT22;65894;53.206;-6.108;2023-02-18T04:13:11;19.70;62.99
76956;DHT22;65894;53.206;-6.108;2023-02-18T04:15:37;19.67;63.12
76956;DHT22;65894;53.206;-6.108;2023-02-18T04:18:03;19.70;63.24
76956;DHT22;65894;53.206;-6.108;2023-02-18T04:20:28;19.68;63.19
76956;DHT22;65894;53.206;-6.108;2023-02-18T04:22:54;19.68;63.00
76956;DHT22;65894;53.206;-6.108;2023-02-18T04:25:19;19.68;63.14
76956;DHT22;65894;53.206;-6.108;2023-02-18T04:27:45;19.67;63.22
76956;DHT22;65894;53.206;-6.108;2023-02-18T04:30:11;19.70;63.15
76956;DHT22;65894;53.206;-6.108;2023-02-18T04:32:37;19.67;63.01
76956;DHT22;65894;53.206;-6.108;2023-02-18T04:35:03;19.65;63.18
76956;DHT22;65894;53.206;-6.108;2023-02-18T04:37:28;19.67;63.04
76956;DHT22;65894;53.206;-6.108;2023-02-18T04:39:54;19.65;63.31
76956;DHT22;65894;53.206;-6.108;2023-02-18T04:42:19;19.64;63.25
76956;DHT22;65894;53.206;-6.108;2023-02-18T04:44:45;19.64;63.31
76956;DHT22;65894;53.206;-6.108;2023-02-18T04:47:10;19.67;63.02
76956;DHT22;65894;53.206;-6.108;2023-02-18T04:49:36;19.65;63.17
76956;DHT22;65894;53.206;-6.108;2023-02-18T04:52:02;19.64;63.23
76956;DHT22;65894;53.206;-6.108;2023-02-18T04:54:27;19.64;63.41
76956;DHT22;65894;53.206;-6.108;2023-02-18T04:56:53;19.64;63.43
76956;DHT22;65894;53.206;-6.108;2023-02-18T04:59:18;19.64;63.36
76956;DHT22;65894;53.206;-6.108;2023-02-18T05:01:44;19.64;63.16
76956;DHT22;65894;53.206;-6.108;2023-02-18T05:04:09;19.62;63.18
76956;DHT22;65894;53.206;-6.108;2023-02-18T05:06:35;19.61;63.43
76956;DHT22;65894;53.206;-6.108;2023-02-18T05:09:03;19.61;63.23
76956;DHT22;65894;53.206;-6.108;2023-02-18T05:11:29;19.62;63.10
76956;DHT22;65894;53.206;-6.108;2023-02-18T05:13:54;19.64;63.00
76956;DHT22;65894;53.206;-6.108;2023-02-18T05:16:20;19.61;63.05
76956;DHT22;65894;53.206;-6.108;2023-02-18T05:18:45;19.62;63.25
76956;DHT22;65894;53.206;-6.108;2023-02-18T05:21:11;19.64;63.15
76956;DHT22;65894;53.206;-6.108;2023-02-18T05:23:36;19.64;63.38
76956;DHT22;65894;53.206;-6.108;2023-02-18T05:26:02;19.60;63.16
76956;DHT22;65894;53.206;-6.108;2023-02-18T05:28:28;19.62;63.19
76956;DHT22;65894;53.206;-6.108;2023-02-18T05:30:53;19.61;63.19
76956;DHT22;65894;53.206;-6.108;2023-02-18T05:33:19;19.61;63.31
76956;DHT22;65894;53.206;-6.108;2023-02-18T05:35:44;19.61;63.10
76956;DHT22;65894;53.206;-6.108;2023-02-18T05:38:10;19.60;63.33
76956;DHT22;65894;53.206;-6.108;2023-02-18T05:40:37;19.60;63.01
76956;DHT22;65894;53.206;-6.108;2023-02-18T05:43:03;19.58;63.21
76956;DHT22;65894;53.206;-6.108;2023-02-18T05:45:28;19.58;63.10
76956;DHT22;65894;53.206;-6.108;2023-02-18T05:47:54;19.60;63.05
76956;DHT22;65894;53.206;-6.108;2023-02-18T05:50:19;19.57;63.27
76956;DHT22;65894;53.206;-6.108;2023-02-18T05:52:45;19.61;63.01
76956;DHT22;65894;53.206;-6.108;2023-02-18T05:55:11;19.60;62.84
76956;DHT22;65894;53.206;-6.108;2023-02-18T05:57:36;19.60;63.43
76956;DHT22;65894;53.206;-6.108;2023-02-18T06:00:04;19.58;63.15
76956;DHT22;65894;53.206;-6.108;2023-02-18T06:02:30;19.58;63.01
76956;DHT22;65894;53.206;-6.108;2023-02-18T06:04:55;19.57;63.26
76956;DHT22;65894;53.206;-6.108;2023-02-18T06:07:21;19.58;63.01
76956;DHT22;65894;53.206;-6.108;2023-02-18T06:09:47;19.55;63.02
76956;DHT22;65894;53.206;-6.108;2023-02-18T06:12:12;19.57;63.02
76956;DHT22;65894;53.206;-6.108;2023-02-18T06:14:38;19.55;63.25
76956;DHT22;65894;53.206;-6.108;2023-02-18T06:17:07;19.57;63.10
76956;DHT22;65894;53.206;-6.108;2023-02-18T06:19:33;19.60;63.45
76956;DHT22;65894;53.206;-6.108;2023-02-18T06:21:59;19.58;63.31
76956;DHT22;65894;53.206;-6.108;2023-02-18T06:24:25;19.58;62.90
76956;DHT22;65894;53.206;-6.108;2023-02-18T06:26:51;19.55;63.29
76956;DHT22;65894;53.206;-6.108;2023-02-18T06:29:16;19.54;62.83
76956;DHT22;65894;53.206;-6.108;2023-02-18T06:31:42;19.55;63.22
76956;DHT22;65894;53.206;-6.108;2023-02-18T06:34:07;19.57;63.07
76956;DHT22;65894;53.206;-6.108;2023-02-18T06:36:33;19.58;62.81
76956;DHT22;65894;53.206;-6.108;2023-02-18T06:38:58;19.58;63.14
76956;DHT22;65894;53.206;-6.108;2023-02-18T06:41:24;19.58;62.96
76956;DHT22;65894;53.206;-6.108;2023-02-18T06:43:50;19.60;63.03
76956;DHT22;65894;53.206;-6.108;2023-02-18T06:46:15;19.58;62.93
76956;DHT22;65894;53.206;-6.108;2023-02-18T06:48:41;19.60;62.84
76956;DHT22;65894;53.206;-6.108;2023-02-18T06:51:06;19.58;63.24
76956;DHT22;65894;53.206;-6.108;2023-02-18T06:53:32;19.60;63.19
76956;DHT22;65894;53.206;-6.108;2023-02-18T06:55:58;19.58;62.81
76956;DHT22;65894;53.206;-6.108;2023-02-18T06:58:23;19.58;63.19
76956;DHT22;65894;53.206;-6.108;2023-02-18T07:00:49;19.58;63.14
76956;DHT22;65894;53.206;-6.108;2023-02-18T07:03:14;19.62;62.92
76956;DHT22;65894;53.206;-6.108;2023-02-18T07:05:41;19.60;62.94
76956;DHT22;65894;53.206;-6.108;2023-02-18T07:08:06;19.61;63.10
76956;DHT22;65894;53.206;-6.108;2023-02-18T07:10:32;19.60;63.15
76956;DHT22;65894;53.206;-6.108;2023-02-18T07:12:58;19.61;63.02
76956;DHT22;65894;53.206;-6.108;2023-02-18T07:15:23;19.62;62.98
76956;DHT22;65894;53.206;-6.108;2023-02-18T07:17:51;19.61;63.10
76956;DHT22;65894;53.206;-6.108;2023-02-18T07:20:18;19.62;63.05
76956;DHT22;65894;53.206;-6.108;2023-02-18T07:22:43;19.62;62.94
76956;DHT22;65894;53.206;-6.108;2023-02-18T07:25:09;19.61;62.94
76956;DHT22;65894;53.206;-6.108;2023-02-18T07:27:34;19.62;62.76
76956;DHT22;65894;53.206;-6.108;2023-02-18T07:30:00;19.62;63.02
76956;DHT22;65894;53.206;-6.108;2023-02-18T07:32:25;19.61;63.13
76956;DHT22;65894;53.206;-6.108;2023-02-18T07:34:51;19.61;62.99
76956;DHT22;65894;53.206;-6.108;2023-02-18T07:37:18;19.65;63.05
76956;DHT22;65894;53.206;-6.108;2023-02-18T07:39:44;19.60;62.87
76956;DHT22;65894;53.206;-6.108;2023-02-18T07:42:10;19.61;62.89
76956;DHT22;65894;53.206;-6.108;2023-02-18T07:44:37;19.60;62.89
76956;DHT22;65894;53.206;-6.108;2023-02-18T07:47:04;19.62;62.90
76956;DHT22;65894;53.206;-6.108;2023-02-18T07:49:31;19.62;62.71
76956;DHT22;65894;53.206;-6.108;2023-02-18T07:51:56;19.60;62.88
76956;DHT22;65894;53.206;-6.108;2023-02-18T07:54:22;19.61;62.89
76956;DHT22;65894;53.206;-6.108;2023-02-18T07:56:48;19.60;62.89
76956;DHT22;65894;53.206;-6.108;2023-02-18T07:59:14;19.60;62.99
76956;DHT22;65894;53.206;-6.108;2023-02-18T08:01:40;19.61;62.71
76956;DHT22;65894;53.206;-6.108;2023-02-18T08:04:06;19.61;62.66
76956;DHT22;65894;53.206;-6.108;2023-02-18T08:06:45;19.60;62.63
76956;DHT22;65894;53.206;-6.108;2023-02-18T08:09:12;19.62;62.66
76956;DHT22;65894;53.206;-6.108;2023-02-18T08:11:38;19.65;62.61
76956;DHT22;65894;53.206;-6.108;2023-02-18T08:14:04;19.65;62.49
76956;DHT22;65894;53.206;-6.108;2023-02-18T08:16:29;19.68;62.43
76956;DHT22;65894;53.206;-6.108;2023-02-18T08:18:55;19.65;62.60
76956;DHT22;65894;53.206;-6.108;2023-02-18T08:21:22;19.67;62.66
76956;DHT22;65894;53.206;-6.108;2023-02-18T08:23:48;19.68;62.44
76956;DHT22;65894;53.206;-6.108;2023-02-18T08:26:14;19.68;62.81
76956;DHT22;65894;53.206;-6.108;2023-02-18T08:28:41;19.67;62.90
76956;DHT22;65894;53.206;-6.108;2023-02-18T08:31:07;19.68;62.65
76956;DHT22;65894;53.206;-6.108;2023-02-18T08:33:39;19.68;62.85
76956;DHT22;65894;53.206;-6.108;2023-02-18T08:36:06;19.70;62.65
76956;DHT22;65894;53.206;-6.108;2023-02-18T08:38:32;19.67;62.68
76956;DHT22;65894;53.206;-6.108;2023-02-18T08:41:05;19.71;62.88
76956;DHT22;65894;53.206;-6.108;2023-02-18T08:43:30;19.71;62.73
76956;DHT22;65894;53.206;-6.108;2023-02-18T08:45:57;19.70;62.87
76956;DHT22;65894;53.206;-6.108;2023-02-18T08:48:23;19.71;62.78
76956;DHT22;65894;53.206;-6.108;2023-02-18T08:50:48;19.68;62.80
76956;DHT22;65894;53.206;-6.108;2023-02-18T08:53:15;19.72;62.76
76956;DHT22;65894;53.206;-6.108;2023-02-18T08:55:41;19.72;62.61
76956;DHT22;65894;53.206;-6.108;2023-02-18T08:58:06;19.71;62.58
76956;DHT22;65894;53.206;-6.108;2023-02-18T09:00:32;19.74;62.85
76956;DHT22;65894;53.206;-6.108;2023-02-18T09:02:58;19.74;62.79
76956;DHT22;65894;53.206;-6.108;2023-02-18T09:05:23;19.75;62.85
76956;DHT22;65894;53.206;-6.108;2023-02-18T09:07:49;19.75;63.01
76956;DHT22;65894;53.206;-6.108;2023-02-18T09:10:15;19.74;63.07
76956;DHT22;65894;53.206;-6.108;2023-02-18T09:12:40;19.75;62.79
76956;DHT22;65894;53.206;-6.108;2023-02-18T09:15:06;19.75;62.83
76956;DHT22;65894;53.206;-6.108;2023-02-18T09:17:32;19.77;62.92
76956;DHT22;65894;53.206;-6.108;2023-02-18T09:19:57;19.75;62.60
76956;DHT22;65894;53.206;-6.108;2023-02-18T09:22:23;19.75;62.95
76956;DHT22;65894;53.206;-6.108;2023-02-18T09:24:48;19.79;62.95
76956;DHT22;65894;53.206;-6.108;2023-02-18T09:27:14;19.78;63.14
76956;DHT22;65894;53.206;-6.108;2023-02-18T09:29:41;19.81;64.32
76956;DHT22;65894;53.206;-6.108;2023-02-18T09:32:08;19.82;67.33
76956;DHT22;65894;53.206;-6.108;2023-02-18T09:34:34;19.83;64.82
76956;DHT22;65894;53.206;-6.108;2023-02-18T09:37:00;19.85;66.03
76956;DHT22;65894;53.206;-6.108;2023-02-18T09:39:26;19.86;65.84
76956;DHT22;65894;53.206;-6.108;2023-02-18T09:41:58;19.85;66.03
76956;DHT22;65894;53.206;-6.108;2023-02-18T09:44:32;19.85;65.86
76956;DHT22;65894;53.206;-6.108;2023-02-18T09:49:30;19.88;65.63
76956;DHT22;65894;53.206;-6.108;2023-02-18T09:52:05;19.85;65.26
76956;DHT22;65894;53.206;-6.108;2023-02-18T09:54:31;19.88;65.17
76956;DHT22;65894;53.206;-6.108;2023-02-18T09:56:58;19.88;65.08
76956;DHT22;65894;53.206;-6.108;2023-02-18T09:59:24;19.88;64.92
76956;DHT22;65894;53.206;-6.108;2023-02-18T10:01:52;19.89;65.03
76956;DHT22;65894;53.206;-6.108;2023-02-18T10:04:26;19.89;65.03
76956;DHT22;65894;53.206;-6.108;2023-02-18T10:06:55;19.89;64.98
76956;DHT22;65894;53.206;-6.108;2023-02-18T10:09:36;19.89;64.96
76956;DHT22;65894;53.206;-6.108;2023-02-18T10:12:17;19.91;65.07
76956;DHT22;65894;53.206;-6.108;2023-02-18T10:14:48;19.92;64.77
76956;DHT22;65894;53.206;-6.108;2023-02-18T10:17:15;19.93;64.97
76956;DHT22;65894;53.206;-6.108;2023-02-18T10:19:43;19.93;64.75
76956;DHT22;65894;53.206;-6.108;2023-02-18T10:22:12;19.91;64.67
76956;DHT22;65894;53.206;-6.108;2023-02-18T10:24:45;19.92;64.65
76956;DHT22;65894;53.206;-6.108;2023-02-18T10:27:25;19.92;64.66
76956;DHT22;65894;53.206;-6.108;2023-02-18T10:29:51;19.92;64.73
76956;DHT22;65894;53.206;-6.108;2023-02-18T10:32:26;19.93;64.66
76956;DHT22;65894;53.206;-6.108;2023-02-18T10:35:29;19.96;64.47
76956;DHT22;65894;53.206;-6.108;2023-02-18T10:38:16;19.95;64.54
76956;DHT22;65894;53.206;-6.108;2023-02-18T10:41:13;19.93;64.52
76956;DHT22;65894;53.206;-6.108;2023-02-18T10:46:36;19.93;64.51
76956;DHT22;65894;53.206;-6.108;2023-02-18T10:51:44;19.96;64.46
76956;DHT22;65894;53.206;-6.108;2023-02-18T10:54:13;19.98;64.45
76956;DHT22;65894;53.206;-6.108;2023-02-18T10:56:40;19.98;64.47
76956;DHT22;65894;53.206;-6.108;2023-02-18T11:02:34;19.96;64.51
76956;DHT22;65894;53.206;-6.108;2023-02-18T11:04:43;19.99;64.52
76956;DHT22;65894;53.206;-6.108;2023-02-18T11:07:18;20.01;64.53
76956;DHT22;65894;53.206;-6.108;2023-02-18T11:09:48;20.01;64.46
76956;DHT22;65894;53.206;-6.108;2023-02-18T11:12:31;19.99;64.40
76956;DHT22;65894;53.206;-6.108;2023-02-18T11:17:42;20.02;64.41
76956;DHT22;65894;53.206;-6.108;2023-02-18T11:20:33;20.01;64.30
76956;DHT22;65894;53.206;-6.108;2023-02-18T11:23:15;20.02;64.45
76956;DHT22;65894;53.206;-6.108;2023-02-18T11:26:02;20.02;64.46
76956;DHT22;65894;53.206;-6.108;2023-02-18T11:28:49;20.04;64.39
76956;DHT22;65894;53.206;-6.108;2023-02-18T11:31:20;20.02;64.32
76956;DHT22;65894;53.206;-6.108;2023-02-18T11:33:49;20.02;64.29
76956;DHT22;65894;53.206;-6.108;2023-02-18T11:36:32;20.04;64.31
76956;DHT22;65894;53.206;-6.108;2023-02-18T11:39:16;20.04;64.31
76956;DHT22;65894;53.206;-6.108;2023-02-18T11:41:48;20.04;64.41
76956;DHT22;65894;53.206;-6.108;2023-02-18T11:44:30;20.05;64.13
76956;DHT22;65894;53.206;-6.108;2023-02-18T11:47:03;20.06;64.36
76956;DHT22;65894;53.206;-6.108;2023-02-18T11:49:30;20.06;63.99
76956;DHT22;65894;53.206;-6.108;2023-02-18T11:52:04;20.08;64.38
76956;DHT22;65894;53.206;-6.108;2023-02-18T11:54:30;20.08;64.35
76956;DHT22;65894;53.206;-6.108;2023-02-18T11:57:01;20.10;64.38
76956;DHT22;65894;53.206;-6.108;2023-02-18T11:59:31;20.06;64.38
76956;DHT22;65894;53.206;-6.108;2023-02-18T12:04:40;20.10;64.40
76956;DHT22;65894;53.206;-6.108;2023-02-18T12:07:20;20.09;64.46
76956;DHT22;65894;53.206;-6.108;2023-02-18T12:09:50;20.09;64.48
76956;DHT22;65894;53.206;-6.108;2023-02-18T12:12:31;20.10;64.46
76956;DHT22;65894;53.206;-6.108;2023-02-18T12:14:59;20.05;64.25
76956;DHT22;65894;53.206;-6.108;2023-02-18T12:17:44;20.08;64.33
76956;DHT22;65894;53.206;-6.108;2023-02-18T12:26:01;20.09;64.25
76956;DHT22;65894;53.206;-6.108;2023-02-18T12:28:48;20.09;64.14
76956;DHT22;65894;53.206;-6.108;2023-02-18T12:44:40;20.12;64.16
76956;DHT22;65894;53.206;-6.108;2023-02-18T12:50:31;20.10;63.82
76956;DHT22;65894;53.206;-6.108;2023-02-18T13:14:54;20.15;64.86
76956;DHT22;65894;53.206;-6.108;2023-02-18T13:17:23;20.13;64.75
76956;DHT22;65894;53.206;-6.108;2023-02-18T13:19:55;20.12;64.79
76956;DHT22;65894;53.206;-6.108;2023-02-18T13:22:24;20.13;64.78
76956;DHT22;65894;53.206;-6.108;2023-02-18T13:24:53;20.13;64.76
76956;DHT22;65894;53.206;-6.108;2023-02-18T13:27:42;20.15;64.95
76956;DHT22;65894;53.206;-6.108;2023-02-18T13:40:58;20.13;64.81
76956;DHT22;65894;53.206;-6.108;2023-02-18T13:43:31;20.15;64.77
76956;DHT22;65894;53.206;-6.108;2023-02-18T13:51:40;20.15;64.68
76956;DHT22;65894;53.206;-6.108;2023-02-18T13:56:43;20.15;64.62
76956;DHT22;65894;53.206;-6.108;2023-02-18T14:01:40;20.15;64.33
76956;DHT22;65894;53.206;-6.108;2023-02-18T14:09:44;20.15;64.61
76956;DHT22;65894;53.206;-6.108;2023-02-18T14:12:26;20.13;64.60
76956;DHT22;65894;53.206;-6.108;2023-02-18T14:15:00;20.16;64.67
76956;DHT22;65894;53.206;-6.108;2023-02-18T14:17:39;20.16;64.42
76956;DHT22;65894;53.206;-6.108;2023-02-18T14:22:47;20.12;64.62
76956;DHT22;65894;53.206;-6.108;2023-02-18T14:27:39;20.13;64.41
76956;DHT22;65894;53.206;-6.108;2023-02-18T14:30:15;20.16;64.46
76956;DHT22;65894;53.206;-6.108;2023-02-18T14:32:43;20.15;64.63
76956;DHT22;65894;53.206;-6.108;2023-02-18T14:35:20;20.16;64.60
76956;DHT22;65894;53.206;-6.108;2023-02-18T14:40:51;20.13;64.56
76956;DHT22;65894;53.206;-6.108;2023-02-18T14:43:37;20.15;64.39
76956;DHT22;65894;53.206;-6.108;2023-02-18T14:49:15;20.15;64.25
76956;DHT22;65894;53.206;-6.108;2023-02-18T14:51:44;20.16;64.07
76956;DHT22;65894;53.206;-6.108;2023-02-18T14:54:18;20.16;64.10
76956;DHT22;65894;53.206;-6.108;2023-02-18T14:57:06;20.18;64.11
76956;DHT22;65894;53.206;-6.108;2023-02-18T14:59:36;20.19;64.06
76956;DHT22;65894;53.206;-6.108;2023-02-18T15:02:15;20.18;64.09
76956;DHT22;65894;53.206;-6.108;2023-02-18T15:04:42;20.18;64.00
76956;DHT22;65894;53.206;-6.108;2023-02-18T15:07:10;20.19;64.18
76956;DHT22;65894;53.206;-6.108;2023-02-18T15:09:52;20.18;64.08
76956;DHT22;65894;53.206;-6.108;2023-02-18T15:12:20;20.19;64.07
76956;DHT22;65894;53.206;-6.108;2023-02-18T15:14:48;20.19;64.18
76956;DHT22;65894;53.206;-6.108;2023-02-18T15:17:24;20.22;64.19
76956;DHT22;65894;53.206;-6.108;2023-02-18T15:19:54;20.29;64.02
76956;DHT22;65894;53.206;-6.108;2023-02-18T15:22:22;20.26;64.21
76956;DHT22;65894;53.206;-6.108;2023-02-18T15:24:50;20.26;63.97
76956;DHT22;65894;53.206;-6.108;2023-02-18T15:27:28;20.23;64.32
76956;DHT22;65894;53.206;-6.108;2023-02-18T15:30:03;20.26;64.16
76956;DHT22;65894;53.206;-6.108;2023-02-18T15:32:37;20.28;64.17
76956;DHT22;65894;53.206;-6.108;2023-02-18T15:35:14;20.32;63.87
76956;DHT22;65894;53.206;-6.108;2023-02-18T15:37:43;20.34;64.19
76956;DHT22;65894;53.206;-6.108;2023-02-18T15:40:15;20.37;64.02
76956;DHT22;65894;53.206;-6.108;2023-02-18T15:42:41;20.41;64.26
76956;DHT22;65894;53.206;-6.108;2023-02-18T15:45:40;20.39;63.95
76956;DHT22;65894;53.206;-6.108;2023-02-18T15:50:52;20.33;64.35
76956;DHT22;65894;53.206;-6.108;2023-02-18T15:53:18;20.32;64.41
76956;DHT22;65894;53.206;-6.108;2023-02-18T15:55:47;20.32;64.58
76956;DHT22;65894;53.206;-6.108;2023-02-18T16:03:19;20.30;64.45
76956;DHT22;65894;53.206;-6.108;2023-02-18T16:05:45;20.28;64.53
76956;DHT22;65894;53.206;-6.108;2023-02-18T16:08:15;20.29;64.36
76956;DHT22;65894;53.206;-6.108;2023-02-18T16:10:47;20.30;64.55
76956;DHT22;65894;53.206;-6.108;2023-02-18T16:13:15;20.30;64.52
76956;DHT22;65894;53.206;-6.108;2023-02-18T16:15:43;20.32;64.52
76956;DHT22;65894;53.206;-6.108;2023-02-18T16:23:56;20.30;64.28
76956;DHT22;65894;53.206;-6.108;2023-02-18T16:26:39;20.28;64.52
76956;DHT22;65894;53.206;-6.108;2023-02-18T16:29:19;20.29;64.56
76956;DHT22;65894;53.206;-6.108;2023-02-18T16:31:45;20.30;64.44
76956;DHT22;65894;53.206;-6.108;2023-02-18T16:34:11;20.29;64.57
76956;DHT22;65894;53.206;-6.108;2023-02-18T16:36:36;20.30;64.40
76956;DHT22;65894;53.206;-6.108;2023-02-18T16:39:02;20.29;64.56
76956;DHT22;65894;53.206;-6.108;2023-02-18T16:41:27;20.29;64.57
76956;DHT22;65894;53.206;-6.108;2023-02-18T16:43:53;20.32;64.62
76956;DHT22;65894;53.206;-6.108;2023-02-18T16:46:21;20.29;64.36
76956;DHT22;65894;53.206;-6.108;2023-02-18T16:48:52;20.29;64.48
76956;DHT22;65894;53.206;-6.108;2023-02-18T16:51:32;20.29;64.49
76956;DHT22;65894;53.206;-6.108;2023-02-18T16:53:59;20.30;64.43
76956;DHT22;65894;53.206;-6.108;2023-02-18T16:56:28;20.30;64.33
76956;DHT22;65894;53.206;-6.108;2023-02-18T16:58:55;20.30;64.41
76956;DHT22;65894;53.206;-6.108;2023-02-18T17:01:30;20.28;64.31
76956;DHT22;65894;53.206;-6.108;2023-02-18T17:03:57;20.25;64.37
76956;DHT22;65894;53.206;-6.108;2023-02-18T17:06:23;20.28;64.31
76956;DHT22;65894;53.206;-6.108;2023-02-18T17:08:48;20.29;64.27
76956;DHT22;65894;53.206;-6.108;2023-02-18T17:11:34;20.26;64.27
76956;DHT22;65894;53.206;-6.108;2023-02-18T17:14:00;20.28;64.20
76956;DHT22;65894;53.206;-6.108;2023-02-18T17:16:29;20.28;64.23
76956;DHT22;65894;53.206;-6.108;2023-02-18T17:18:55;20.29;64.38
76956;DHT22;65894;53.206;-6.108;2023-02-18T17:21:22;20.28;64.14
76956;DHT22;65894;53.206;-6.108;2023-02-18T17:23:49;20.26;64.09
76956;DHT22;65894;53.206;-6.108;2023-02-18T17:26:19;20.26;64.00
76956;DHT22;65894;53.206;-6.108;2023-02-18T17:28:45;20.26;64.18
76956;DHT22;65894;53.206;-6.108;2023-02-18T17:31:14;20.26;64.21
76956;DHT22;65894;53.206;-6.108;2023-02-18T17:33:42;20.29;64.03
76956;DHT22;65894;53.206;-6.108;2023-02-18T17:36:08;20.26;64.09
76956;DHT22;65894;53.206;-6.108;2023-02-18T17:38:34;20.26;64.15
76956;DHT22;65894;53.206;-6.108;2023-02-18T17:41:00;20.25;63.94
76956;DHT22;65894;53.206;-6.108;2023-02-18T17:43:25;20.25;63.79
76956;DHT22;65894;53.206;-6.108;2023-02-18T17:45:52;20.25;63.99
76956;DHT22;65894;53.206;-6.108;2023-02-18T17:48:18;20.26;64.14
76956;DHT22;65894;53.206;-6.108;2023-02-18T17:50:44;20.26;63.96
76956;DHT22;65894;53.206;-6.108;2023-02-18T17:53:14;20.25;63.88
76956;DHT22;65894;53.206;-6.108;2023-02-18T17:55:40;20.26;63.74
76956;DHT22;65894;53.206;-6.108;2023-02-18T17:58:07;20.25;64.02
76956;DHT22;65894;53.206;-6.108;2023-02-18T18:00:36;20.22;63.99
76956;DHT22;65894;53.206;-6.108;2023-02-18T18:03:02;20.23;64.07
76956;DHT22;65894;53.206;-6.108;2023-02-18T18:05:33;20.25;63.92
76956;DHT22;65894;53.206;-6.108;2023-02-18T18:08:00;20.22;63.93
76956;DHT22;65894;53.206;-6.108;2023-02-18T18:10:29;20.25;63.77